Terminal Aerodrome Forecast
Issued by NWS

Home | Current Version | Previous Version | Graphics & Text | Print | Product List | Glossary On
Versions: 1 2 3 4 5 6 7 8 9 10 11 12 13 14
000
FTUS43 KICT 221551 AAA
TAFRSL
TAF AMD
KRSL 221551Z 2216/2312 23007KT P6SM VCSH BKN030 OVC050
      TEMPO 2216/2219 4SM -SHRA OVC025
     FM222000 21008KT P6SM SCT070
     FM230100 22008KT P6SM VCTS SCT030CB BKN070
     FM230400 33013G21KT P6SM VCSH BKN050=

USA.gov is the U.S. government's official web portal to all federal, state and local government web resources and services.